createdAt,value
2016-11-06T00:00:04.997Z,0
2016-11-06T00:05:04.003Z,0
2016-11-06T00:10:04.761Z,0
2016-11-06T00:15:04.249Z,0
2016-11-06T00:20:04.338Z,0
2016-11-06T00:25:04.752Z,0
2016-11-06T00:30:04.478Z,0
2016-11-06T00:35:04.544Z,0
2016-11-06T00:40:04.750Z,0
2016-11-06T00:45:04.038Z,0
2016-11-06T00:50:04.770Z,0
2016-11-06T00:55:04.436Z,0
2016-11-06T01:00:04.498Z,0
2016-11-06T01:05:04.728Z,0
2016-11-06T01:10:04.864Z,0
2016-11-06T01:15:04.113Z,0
2016-11-06T01:20:04.134Z,0
2016-11-06T01:25:04.456Z,0
2016-11-06T01:30:04.749Z,0
2016-11-06T01:35:04.258Z,0
2016-11-06T01:40:03.755Z,0
2016-11-06T01:45:03.912Z,0
2016-11-06T01:50:03.884Z,0
2016-11-06T01:55:04.754Z,0
2016-11-06T02:00:04.311Z,0
2016-11-06T02:05:04.658Z,0
2016-11-06T02:10:03.828Z,0
2016-11-06T02:15:04.440Z,0
2016-11-06T02:20:04.074Z,0
2016-11-06T02:25:04.247Z,0
2016-11-06T02:30:04.824Z,0
2016-11-06T02:35:04.212Z,0
2016-11-06T02:40:04.993Z,0
2016-11-06T02:45:04.219Z,0
2016-11-06T02:50:04.586Z,0
2016-11-06T02:55:04.566Z,0
2016-11-06T03:00:05.063Z,0
2016-11-06T03:05:08.812Z,0
2016-11-06T03:10:04.014Z,0
2016-11-06T03:15:03.898Z,0
2016-11-06T03:20:04.823Z,0
2016-11-06T03:25:04.345Z,0
2016-11-06T03:30:04.175Z,0
2016-11-06T03:35:04.846Z,0
2016-11-06T03:40:03.926Z,0
2016-11-06T03:45:03.832Z,0
2016-11-06T03:50:04.724Z,0
2016-11-06T03:55:04.666Z,0
2016-11-06T04:00:05.249Z,0
2016-11-06T04:05:04.686Z,0
2016-11-06T04:10:04.708Z,0
2016-11-06T04:15:04.681Z,0
2016-11-06T04:20:04.157Z,0
2016-11-06T04:25:04.436Z,0
2016-11-06T04:30:03.900Z,0
2016-11-06T04:35:04.526Z,0
2016-11-06T04:40:04.229Z,0
2016-11-06T04:45:04.656Z,0
2016-11-06T04:50:05.035Z,0
2016-11-06T04:55:04.352Z,0
2016-11-06T05:00:04.908Z,0
2016-11-06T05:05:04.561Z,0
2016-11-06T05:10:04.833Z,0
2016-11-06T05:15:04.546Z,0
2016-11-06T05:20:04.934Z,0
2016-11-06T05:25:04.711Z,0
2016-11-06T05:30:04.001Z,0
2016-11-06T05:35:04.309Z,0
2016-11-06T05:40:04.130Z,0
2016-11-06T05:45:04.658Z,0
2016-11-06T05:50:04.830Z,0
2016-11-06T05:55:04.157Z,0
2016-11-06T06:00:04.997Z,0
2016-11-06T06:05:04.693Z,1
2016-11-06T06:10:04.494Z,4
2016-11-06T06:15:04.065Z,8
2016-11-06T06:20:04.696Z,19
2016-11-06T06:25:04.324Z,27
2016-11-06T06:30:04.708Z,45
2016-11-06T06:35:04.502Z,61
2016-11-06T06:40:04.815Z,102
2016-11-06T06:45:04.571Z,168
2016-11-06T06:50:04.189Z,429
2016-11-06T06:55:04.054Z,560
2016-11-06T07:00:03.947Z,674
2016-11-06T07:05:04.545Z,726
2016-11-06T07:10:04.384Z,826
2016-11-06T07:15:04.720Z,694
2016-11-06T07:20:04.444Z,665
2016-11-06T07:25:04.536Z,752
2016-11-06T07:30:04.729Z,886
2016-11-06T07:35:04.189Z,1000
2016-11-06T07:40:04.600Z,2000
2016-11-06T07:45:05.509Z,2000
2016-11-06T07:50:04.838Z,1000
2016-11-06T07:55:04.952Z,1000
2016-11-06T08:00:04.502Z,1000
2016-11-06T08:05:05.145Z,3000
2016-11-06T08:10:05.077Z,3000
2016-11-06T08:15:04.734Z,2000
2016-11-06T08:20:04.733Z,2000
2016-11-06T08:25:04.567Z,2000
2016-11-06T08:30:04.829Z,2000
2016-11-06T08:35:04.391Z,2000
2016-11-06T08:40:04.598Z,2000
2016-11-06T08:45:04.237Z,2000
2016-11-06T08:50:03.912Z,2000
2016-11-06T08:55:04.288Z,3000
2016-11-06T09:00:04.780Z,3000
2016-11-06T09:05:04.339Z,3000
2016-11-06T09:10:04.360Z,3000
2016-11-06T09:15:04.304Z,2000
2016-11-06T09:20:04.713Z,3000
2016-11-06T09:25:04.263Z,4000
2016-11-06T09:30:04.643Z,4000
2016-11-06T09:35:04.816Z,3000
2016-11-06T09:40:04.760Z,2000
2016-11-06T09:45:04.305Z,2000
2016-11-06T09:50:04.801Z,6000
2016-11-06T09:55:04.764Z,7000
2016-11-06T10:00:04.884Z,4000
2016-11-06T10:05:04.874Z,11000
2016-11-06T10:10:03.882Z,6000
2016-11-06T10:15:04.476Z,6000
2016-11-06T10:20:04.665Z,6000
2016-11-06T10:25:04.683Z,6000
2016-11-06T10:30:04.839Z,7000
2016-11-06T10:35:04.617Z,5000
2016-11-06T10:40:04.770Z,5000
2016-11-06T10:45:04.658Z,5000
2016-11-06T10:50:04.203Z,4000
2016-11-06T10:55:05.436Z,7000
2016-11-06T11:00:04.719Z,6000
2016-11-06T11:05:04.302Z,4000
2016-11-06T11:10:04.499Z,5000
2016-11-06T11:15:04.243Z,4000
2016-11-06T11:20:04.985Z,3000
2016-11-06T11:25:04.723Z,3000
2016-11-06T11:30:04.771Z,4000
2016-11-06T11:35:04.824Z,3000
2016-11-06T11:40:03.899Z,2000
2016-11-06T11:45:04.171Z,2000
2016-11-06T11:50:04.507Z,1000
2016-11-06T11:55:04.318Z,2000
2016-11-06T12:00:04.762Z,2000
2016-11-06T12:05:04.143Z,3000
2016-11-06T12:10:04.400Z,4000
2016-11-06T12:15:04.395Z,3000
2016-11-06T12:20:04.837Z,3000
2016-11-06T12:25:04.846Z,4000
2016-11-06T12:30:04.776Z,4000
2016-11-06T12:35:04.619Z,1000
2016-11-06T12:40:04.368Z,1000
2016-11-06T12:45:04.509Z,1000
2016-11-06T12:50:05.244Z,3000
2016-11-06T12:55:04.296Z,3000
2016-11-06T13:00:05.116Z,4000
2016-11-06T13:05:04.829Z,2000
2016-11-06T13:10:05.208Z,2000
2016-11-06T13:15:04.735Z,2000
2016-11-06T13:20:05.088Z,2000
2016-11-06T13:25:04.841Z,2000
2016-11-06T13:30:06.333Z,3000
2016-11-06T13:35:04.722Z,4000
2016-11-06T13:40:08.330Z,3000
2016-11-06T13:45:04.278Z,2000
2016-11-06T13:50:04.374Z,1000
2016-11-06T13:55:04.514Z,1000
2016-11-06T14:00:04.402Z,1000
2016-11-06T14:05:05.109Z,1000
2016-11-06T14:10:04.214Z,1000
2016-11-06T14:15:04.238Z,1000
2016-11-06T14:20:04.885Z,1000
2016-11-06T14:25:04.172Z,1000
2016-11-06T14:30:04.179Z,1000
2016-11-06T14:35:04.774Z,723
2016-11-06T14:40:04.987Z,704
2016-11-06T14:45:04.521Z,977
2016-11-06T14:50:04.439Z,1000
2016-11-06T14:55:03.948Z,865
2016-11-06T15:00:04.921Z,791
2016-11-06T15:05:04.031Z,791
2016-11-06T15:10:04.694Z,925
2016-11-06T15:15:04.141Z,660
2016-11-06T15:20:04.218Z,400
2016-11-06T15:25:04.515Z,315
2016-11-06T15:30:04.520Z,361
2016-11-06T15:35:04.930Z,324
2016-11-06T15:40:04.699Z,279
2016-11-06T15:45:04.392Z,149
2016-11-06T15:50:04.379Z,70
2016-11-06T15:55:04.124Z,62
2016-11-06T16:00:04.023Z,60
2016-11-06T16:05:04.109Z,37
2016-11-06T16:10:04.465Z,24
2016-11-06T16:15:04.052Z,20
2016-11-06T16:20:04.486Z,12
2016-11-06T16:25:04.803Z,5
2016-11-06T16:30:04.739Z,2
2016-11-06T16:35:04.545Z,0
2016-11-06T16:40:04.573Z,0
2016-11-06T16:45:04.569Z,0
2016-11-06T16:50:04.078Z,0
2016-11-06T16:55:04.711Z,0
2016-11-06T17:00:04.441Z,0
2016-11-06T17:05:04.750Z,0
2016-11-06T17:10:04.131Z,0
2016-11-06T17:15:04.152Z,0
2016-11-06T17:20:04.608Z,0
2016-11-06T17:25:04.941Z,0
2016-11-06T17:30:04.727Z,0
2016-11-06T17:35:04.268Z,0
2016-11-06T17:40:04.623Z,0
2016-11-06T17:45:04.907Z,0
2016-11-06T17:50:04.441Z,0
2016-11-06T17:55:04.649Z,0
2016-11-06T18:00:05.090Z,0
2016-11-06T18:05:04.288Z,0
2016-11-06T18:10:04.364Z,0
2016-11-06T18:15:04.207Z,0
2016-11-06T18:20:04.465Z,0
2016-11-06T18:25:03.907Z,0
2016-11-06T18:30:04.261Z,0
2016-11-06T18:35:04.883Z,0
2016-11-06T18:40:04.338Z,0
2016-11-06T18:45:04.908Z,0
2016-11-06T18:50:04.190Z,0
2016-11-06T18:55:04.239Z,0
2016-11-06T19:00:04.807Z,0
2016-11-06T19:05:03.920Z,0
2016-11-06T19:10:04.849Z,0
2016-11-06T19:15:04.203Z,0
2016-11-06T19:20:03.929Z,0
2016-11-06T19:25:04.694Z,0
2016-11-06T19:30:04.798Z,0
2016-11-06T19:35:04.178Z,0
2016-11-06T19:40:04.606Z,0
2016-11-06T19:42:59.295Z,0
2016-11-06T19:44:58.299Z,0
2016-11-06T19:45:04.436Z,0
2016-11-06T19:50:04.466Z,0
2016-11-06T19:55:04.422Z,0
2016-11-06T20:00:04.483Z,0
2016-11-06T20:05:04.652Z,0
2016-11-06T20:10:04.622Z,0
2016-11-06T20:15:04.737Z,0
2016-11-06T20:20:04.969Z,0
2016-11-06T20:25:04.563Z,0
2016-11-06T20:30:04.479Z,0
2016-11-06T20:35:04.270Z,0
2016-11-06T20:40:04.461Z,0
2016-11-06T20:45:04.233Z,0
2016-11-06T20:50:04.767Z,0
2016-11-06T20:55:04.526Z,0
2016-11-06T21:00:03.908Z,0
2016-11-06T21:05:04.290Z,0
2016-11-06T21:10:04.043Z,0
2016-11-06T21:15:03.895Z,0
2016-11-06T21:20:04.128Z,0
2016-11-06T21:25:04.754Z,0
2016-11-06T21:30:04.506Z,0
2016-11-06T21:35:03.955Z,0
2016-11-06T21:40:04.666Z,0
2016-11-06T21:45:04.192Z,0
2016-11-06T21:50:04.379Z,0
2016-11-06T21:55:03.991Z,0
2016-11-06T22:00:04.280Z,0
2016-11-06T22:05:04.255Z,0
2016-11-06T22:10:04.321Z,0
2016-11-06T22:15:04.774Z,0
2016-11-06T22:20:04.402Z,0
2016-11-06T22:25:04.484Z,0
2016-11-06T22:30:04.299Z,0
2016-11-06T22:35:04.711Z,0
2016-11-06T22:40:04.577Z,0
2016-11-06T22:45:04.106Z,0
2016-11-06T22:50:04.793Z,0
2016-11-06T22:55:04.423Z,0
2016-11-06T23:00:04.229Z,0
2016-11-06T23:05:04.928Z,0
2016-11-06T23:10:04.618Z,0
2016-11-06T23:15:04.714Z,0
2016-11-06T23:20:03.977Z,0
2016-11-06T23:25:04.166Z,0
2016-11-06T23:30:04.709Z,0
2016-11-06T23:35:04.050Z,0
2016-11-06T23:40:03.894Z,0
2016-11-06T23:45:04.995Z,0
2016-11-06T23:50:04.628Z,0
2016-11-06T23:55:04.585Z,0
